Wetterdaten: Donnerstag, 19.02.2015
Datum Zeit Temp. A. Feuchte A. Luftdruck Regen Wind Richtung Richtung Sonnenschein UV Solar Windben
19.02.2015 00:00 0,1 C 90 % 1034,2 hPa 0,0 mm 0,0 km/h (0 Bft) N 0 0 min 0 UV-I 0 W/m 0,0 km/h (0 Bft)
19.02.2015 00:10 0,1 C 90 % 1034,2 hPa 0,0 mm 0,0 km/h (0 Bft) W 270 0 min 0 UV-I 0 W/m 1,6 km/h (1 Bft)
19.02.2015 00:20 0,0 C 90 % 1034,1 hPa 0,0 mm 0,0 km/h (0 Bft) N 0 0 min 0 UV-I 0 W/m 0,0 km/h (0 Bft)
19.02.2015 00:30 0,0 C 90 % 1034,0 hPa 0,0 mm 0,0 km/h (0 Bft) N 0 0 min 0 UV-I 0 W/m 0,0 km/h (0 Bft)
19.02.2015 00:40 -0,1 C 90 % 1034,0 hPa 0,0 mm 0,0 km/h (0 Bft) N 0 0 min 0 UV-I 0 W/m 0,0 km/h (0 Bft)
19.02.2015 00:50 -0,1 C 90 % 1033,9 hPa 0,0 mm 0,0 km/h (0 Bft) W 270 0 min 0 UV-I 0 W/m 1,6 km/h (1 Bft)
19.02.2015 01:00 -0,2 C 90 % 1033,8 hPa 0,0 mm 0,0 km/h (0 Bft) W 270 0 min 0 UV-I 0 W/m 1,6 km/h (1 Bft)
19.02.2015 01:10 -0,3 C 90 % 1033,7 hPa 0,0 mm 0,0 km/h (0 Bft) N 0 0 min 0 UV-I 0 W/m 0,0 km/h (0 Bft)
19.02.2015 01:20 -0,3 C 90 % 1033,7 hPa 0,0 mm 0,0 km/h (0 Bft) N 0 0 min 0 UV-I 0 W/m 0,0 km/h (0 Bft)
19.02.2015 01:30 -0,4 C 90 % 1033,7 hPa 0,0 mm 0,0 km/h (0 Bft) N 0 0 min 0 UV-I 0 W/m 0,0 km/h (0 Bft)
19.02.2015 01:40 -0,5 C 90 % 1033,6 hPa 0,0 mm 0,0 km/h (0 Bft) N 0 0 min 0 UV-I 0 W/m 0,0 km/h (0 Bft)
19.02.2015 01:50 -0,6 C 90 % 1033,5 hPa 0,0 mm 0,0 km/h (0 Bft) N 0 0 min 0 UV-I 0 W/m 0,0 km/h (0 Bft)
19.02.2015 02:00 -0,7 C 90 % 1033,3 hPa 0,0 mm 0,0 km/h (0 Bft) N 0 0 min 0 UV-I 0 W/m 0,0 km/h (0 Bft)
19.02.2015 02:10 -0,8 C 90 % 1033,2 hPa 0,0 mm 0,0 km/h (0 Bft) N 0 0 min 0 UV-I 0 W/m 0,0 km/h (0 Bft)
19.02.2015 02:20 -0,8 C 90 % 1033,2 hPa 0,0 mm 0,0 km/h (0 Bft) N 0 0 min 0 UV-I 0 W/m 0,0 km/h (0 Bft)
19.02.2015 02:30 -0,9 C 90 % 1033,2 hPa 0,0 mm 0,0 km/h (0 Bft) N 0 0 min 0 UV-I 0 W/m 0,0 km/h (0 Bft)
19.02.2015 02:40 -1,0 C 90 % 1032,9 hPa 0,0 mm 0,0 km/h (0 Bft) N 0 0 min 0 UV-I 0 W/m 0,0 km/h (0 Bft)
19.02.2015 02:50 -1,1 C 90 % 1032,8 hPa 0,0 mm 0,0 km/h (0 Bft) W 270 0 min 0 UV-I 0 W/m 1,6 km/h (1 Bft)
19.02.2015 03:00 -1,1 C 91 % 1032,7 hPa 0,0 mm 0,0 km/h (0 Bft) N 0 0 min 0 UV-I 0 W/m 0,0 km/h (0 Bft)
19.02.2015 03:10 -1,2 C 90 % 1032,6 hPa 0,0 mm 0,0 km/h (0 Bft) N 0 0 min 0 UV-I 0 W/m 0,0 km/h (0 Bft)
19.02.2015 03:20 -1,2 C 90 % 1032,6 hPa 0,0 mm 0,0 km/h (0 Bft) W 270 0 min 0 UV-I 0 W/m 1,6 km/h (1 Bft)
19.02.2015 03:30 -1,3 C 90 % 1032,6 hPa 0,0 mm 0,0 km/h (0 Bft) N 0 0 min 0 UV-I 0 W/m 0,0 km/h (0 Bft)
19.02.2015 03:40 -1,3 C 90 % 1032,5 hPa 0,0 mm 0,0 km/h (0 Bft) N 0 0 min 0 UV-I 0 W/m 0,0 km/h (0 Bft)
19.02.2015 03:50 -1,4 C 91 % 1032,3 hPa 0,0 mm 0,0 km/h (0 Bft) N 0 0 min 0 UV-I 0 W/m 0,0 km/h (0 Bft)
19.02.2015 04:00 -1,4 C 90 % 1032,3 hPa 0,0 mm 0,0 km/h (0 Bft) W 270 0 min 0 UV-I 0 W/m 1,6 km/h (1 Bft)
19.02.2015 04:10 -1,4 C 90 % 1032,1 hPa 0,0 mm 0,0 km/h (0 Bft) N 0 0 min 0 UV-I 0 W/m 0,0 km/h (0 Bft)
19.02.2015 04:20 -1,4 C 90 % 1032,1 hPa 0,0 mm 0,0 km/h (0 Bft) N 0 0 min 0 UV-I 0 W/m 0,0 km/h (0 Bft)
19.02.2015 04:30 -1,5 C 90 % 1032,0 hPa 0,0 mm 0,0 km/h (0 Bft) W 270 0 min 0 UV-I 0 W/m 1,6 km/h (1 Bft)
19.02.2015 04:40 -1,6 C 90 % 1031,9 hPa 0,0 mm 0,0 km/h (0 Bft) N 0 0 min 0 UV-I 0 W/m 0,0 km/h (0 Bft)
19.02.2015 04:50 -1,6 C 91 % 1031,9 hPa 0,0 mm 0,0 km/h (0 Bft) W 270 0 min 0 UV-I 0 W/m 1,6 km/h (1 Bft)
19.02.2015 05:00 -1,7 C 91 % 1031,8 hPa 0,0 mm 0,0 km/h (0 Bft) N 0 0 min 0 UV-I 0 W/m 0,0 km/h (0 Bft)
19.02.2015 05:10 -1,8 C 91 % 1031,8 hPa 0,0 mm 0,0 km/h (0 Bft) N 0 0 min 0 UV-I 0 W/m 0,0 km/h (0 Bft)
19.02.2015 05:20 -1,8 C 90 % 1031,8 hPa 0,0 mm 0,0 km/h (0 Bft) N 0 0 min 0 UV-I 0 W/m 0,0 km/h (0 Bft)
19.02.2015 05:30 -1,9 C 90 % 1031,6 hPa 0,0 mm 0,0 km/h (0 Bft) N 0 0 min 0 UV-I 0 W/m 0,0 km/h (0 Bft)
19.02.2015 05:40 -2,0 C 91 % 1031,5 hPa 0,0 mm 0,0 km/h (0 Bft) N 0 0 min 0 UV-I 0 W/m 0,0 km/h (0 Bft)
19.02.2015 05:50 -2,1 C 91 % 1031,4 hPa 0,0 mm 0,0 km/h (0 Bft) N 0 0 min 0 UV-I 0 W/m 0,0 km/h (0 Bft)
19.02.2015 06:00 -2,2 C 90 % 1031,3 hPa 0,0 mm 0,0 km/h (0 Bft) N 0 0 min 0 UV-I 0 W/m 0,0 km/h (0 Bft)
19.02.2015 06:10 -2,3 C 90 % 1031,2 hPa 0,0 mm 0,0 km/h (0 Bft) N 0 0 min 0 UV-I 0 W/m 0,0 km/h (0 Bft)
19.02.2015 06:20 -2,4 C 90 % 1031,1 hPa 0,0 mm 0,0 km/h (0 Bft) N 0 0 min 0 UV-I 0 W/m 0,0 km/h (0 Bft)
19.02.2015 06:30 -2,5 C 91 % 1031,0 hPa 0,0 mm 0,0 km/h (0 Bft) N 0 0 min 0 UV-I 0 W/m 0,0 km/h (0 Bft)
19.02.2015 06:40 -2,6 C 90 % 1030,8 hPa 0,0 mm 0,0 km/h (0 Bft) N 0 0 min 0 UV-I 0 W/m 0,0 km/h (0 Bft)
19.02.2015 06:50 -2,6 C 91 % 1030,7 hPa 0,0 mm 0,0 km/h (0 Bft) N 0 0 min 0 UV-I 0 W/m 0,0 km/h (0 Bft)
19.02.2015 07:00 -2,4 C 91 % 1030,5 hPa 0,0 mm 0,0 km/h (0 Bft) W 270 0 min 0 UV-I 0 W/m 3,2 km/h (1 Bft)
19.02.2015 07:10 -2,2 C 91 % 1030,6 hPa 0,0 mm 0,0 km/h (0 Bft) W 270 0 min 0 UV-I 0 W/m 3,2 km/h (1 Bft)
19.02.2015 07:20 -1,9 C 92 % 1030,5 hPa 0,0 mm 0,0 km/h (0 Bft) W 270 0 min 0 UV-I 0 W/m 4,8 km/h (1 Bft)
19.02.2015 07:30 -1,6 C 92 % 1030,4 hPa 0,0 mm 0,0 km/h (0 Bft) W 270 0 min 0 UV-I 0 W/m 3,2 km/h (1 Bft)
19.02.2015 07:40 -1,3 C 91 % 1030,5 hPa 0,0 mm 0,0 km/h (0 Bft) W 270 0 min 0 UV-I 0 W/m 3,2 km/h (1 Bft)
19.02.2015 07:50 -1,1 C 91 % 1030,5 hPa 0,0 mm 0,0 km/h (0 Bft) N 0 0 min 0 UV-I 5 W/m 0,0 km/h (0 Bft)
19.02.2015 08:00 -0,9 C 91 % 1030,5 hPa 0,0 mm 0,0 km/h (0 Bft) N 0 0 min 0 UV-I 11 W/m 0,0 km/h (0 Bft)
19.02.2015 08:10 -0,7 C 92 % 1030,6 hPa 0,0 mm 0,0 km/h (0 Bft) W 270 0 min 0 UV-I 16 W/m 3,2 km/h (1 Bft)
19.02.2015 08:20 -0,6 C 92 % 1030,6 hPa 0,0 mm 0,0 km/h (0 Bft) W 270 0 min 0 UV-I 21 W/m 3,2 km/h (1 Bft)
19.02.2015 08:30 -0,3 C 92 % 1030,6 hPa 0,0 mm 0,0 km/h (0 Bft) W 270 0 min 0 UV-I 26 W/m 6,4 km/h (2 Bft)
19.02.2015 08:40 -0,1 C 92 % 1030,5 hPa 0,0 mm 0,0 km/h (0 Bft) W 270 0 min 0 UV-I 37 W/m 4,8 km/h (1 Bft)
19.02.2015 08:50 0,1 C 92 % 1030,5 hPa 0,0 mm 1,6 km/h (1 Bft) W 270 0 min 0 UV-I 44 W/m 6,4 km/h (2 Bft)
19.02.2015 09:00 0,3 C 92 % 1030,4 hPa 0,0 mm 1,6 km/h (1 Bft) W 270 0 min 0 UV-I 47 W/m 6,4 km/h (2 Bft)
19.02.2015 09:10 0,4 C 92 % 1030,4 hPa 0,0 mm 1,6 km/h (1 Bft) W 270 0 min 0 UV-I 56 W/m 6,4 km/h (2 Bft)
19.02.2015 09:20 0,6 C 92 % 1030,5 hPa 0,0 mm 3,2 km/h (1 Bft) W-SW 247 0 min 0 UV-I 67 W/m 11,3 km/h (2 Bft)
19.02.2015 09:30 0,8 C 92 % 1030,5 hPa 0,0 mm 1,6 km/h (1 Bft) W-SW 247 0 min 0 UV-I 88 W/m 11,3 km/h (2 Bft)
19.02.2015 09:40 1,0 C 92 % 1030,2 hPa 0,0 mm 1,6 km/h (1 Bft) W-SW 247 0 min 1 UV-I 111 W/m 8,0 km/h (2 Bft)
19.02.2015 09:50 1,5 C 90 % 1029,9 hPa 0,0 mm 1,6 km/h (1 Bft) SW 225 0 min 1 UV-I 139 W/m 11,3 km/h (2 Bft)
19.02.2015 10:00 2,1 C 88 % 1029,8 hPa 0,0 mm 1,6 km/h (1 Bft) SW 225 10 min 1 UV-I 199 W/m 9,7 km/h (2 Bft)
19.02.2015 10:10 2,6 C 86 % 1030,0 hPa 0,0 mm 3,2 km/h (1 Bft) SW 225 10 min 1 UV-I 221 W/m 14,5 km/h (3 Bft)
19.02.2015 10:20 2,7 C 84 % 1029,9 hPa 0,0 mm 1,6 km/h (1 Bft) SW 225 0 min 1 UV-I 141 W/m 9,7 km/h (2 Bft)
19.02.2015 10:30 2,8 C 83 % 1029,7 hPa 0,0 mm 1,6 km/h (1 Bft) SW 225 10 min 1 UV-I 304 W/m 9,7 km/h (2 Bft)
19.02.2015 10:40 3,3 C 81 % 1029,7 hPa 0,0 mm 3,2 km/h (1 Bft) SW 225 10 min 1 UV-I 323 W/m 17,7 km/h (3 Bft)
19.02.2015 10:50 3,6 C 79 % 1029,5 hPa 0,0 mm 1,6 km/h (1 Bft) W-SW 247 10 min 1 UV-I 309 W/m 8,0 km/h (2 Bft)
19.02.2015 11:00 3,6 C 79 % 1029,4 hPa 0,0 mm 3,2 km/h (1 Bft) SW 225 10 min 1 UV-I 318 W/m 9,7 km/h (2 Bft)
19.02.2015 11:10 3,6 C 78 % 1029,1 hPa 0,0 mm 1,6 km/h (1 Bft) SW 225 10 min 1 UV-I 330 W/m 9,7 km/h (2 Bft)
19.02.2015 11:20 3,8 C 78 % 1028,9 hPa 0,0 mm 1,6 km/h (1 Bft) SW 225 10 min 1 UV-I 316 W/m 9,7 km/h (2 Bft)
19.02.2015 11:30 3,9 C 78 % 1028,9 hPa 0,0 mm 0,0 km/h (0 Bft) SW 225 10 min 2 UV-I 371 W/m 3,2 km/h (1 Bft)
19.02.2015 11:40 4,3 C 75 % 1028,6 hPa 0,0 mm 1,6 km/h (1 Bft) SW 225 10 min 2 UV-I 387 W/m 6,4 km/h (2 Bft)
19.02.2015 11:50 4,4 C 74 % 1028,3 hPa 0,0 mm 0,0 km/h (0 Bft) SW 225 10 min 2 UV-I 399 W/m 6,4 km/h (2 Bft)
19.02.2015 12:00 4,6 C 74 % 1028,2 hPa 0,0 mm 0,0 km/h (0 Bft) S 180 10 min 2 UV-I 399 W/m 9,7 km/h (2 Bft)
19.02.2015 12:10 5,0 C 72 % 1028,1 hPa 0,0 mm 1,6 km/h (1 Bft) S 180 10 min 2 UV-I 394 W/m 6,4 km/h (2 Bft)
19.02.2015 12:20 5,1 C 73 % 1027,9 hPa 0,0 mm 0,0 km/h (0 Bft) S 180 10 min 2 UV-I 388 W/m 6,4 km/h (2 Bft)
19.02.2015 12:30 5,4 C 71 % 1027,7 hPa 0,0 mm 0,0 km/h (0 Bft) S 180 10 min 2 UV-I 394 W/m 6,4 km/h (2 Bft)
19.02.2015 12:40 5,4 C 73 % 1027,6 hPa 0,0 mm 0,0 km/h (0 Bft) S 180 10 min 2 UV-I 417 W/m 3,2 km/h (1 Bft)
19.02.2015 12:50 5,7 C 71 % 1027,5 hPa 0,0 mm 1,6 km/h (1 Bft) S 180 10 min 2 UV-I 418 W/m 6,4 km/h (2 Bft)
19.02.2015 13:00 5,9 C 70 % 1027,3 hPa 0,0 mm 1,6 km/h (1 Bft) S 180 10 min 2 UV-I 403 W/m 6,4 km/h (2 Bft)
19.02.2015 13:10 5,8 C 69 % 1027,2 hPa 0,0 mm 0,0 km/h (0 Bft) S 180 10 min 2 UV-I 392 W/m 4,8 km/h (1 Bft)
19.02.2015 13:20 6,1 C 69 % 1027,0 hPa 0,0 mm 1,6 km/h (1 Bft) S 180 10 min 2 UV-I 406 W/m 6,4 km/h (2 Bft)
19.02.2015 13:30 6,1 C 69 % 1026,7 hPa 0,0 mm 1,6 km/h (1 Bft) S-SW 202 10 min 2 UV-I 422 W/m 11,3 km/h (2 Bft)
19.02.2015 13:40 6,5 C 69 % 1026,3 hPa 0,0 mm 3,2 km/h (1 Bft) S-SW 202 10 min 2 UV-I 427 W/m 8,0 km/h (2 Bft)
19.02.2015 13:50 6,2 C 70 % 1026,2 hPa 0,0 mm 3,2 km/h (1 Bft) S-SW 202 10 min 2 UV-I 420 W/m 9,7 km/h (2 Bft)
19.02.2015 14:00 6,3 C 70 % 1026,0 hPa 0,0 mm 1,6 km/h (1 Bft) S-SW 202 10 min 1 UV-I 411 W/m 8,0 km/h (2 Bft)
19.02.2015 14:10 6,3 C 69 % 1025,8 hPa 0,0 mm 1,6 km/h (1 Bft) S-SW 202 10 min 1 UV-I 403 W/m 6,4 km/h (2 Bft)
19.02.2015 14:20 6,6 C 69 % 1025,5 hPa 0,0 mm 1,6 km/h (1 Bft) S-SW 202 10 min 1 UV-I 388 W/m 6,4 km/h (2 Bft)
19.02.2015 14:30 6,7 C 69 % 1025,3 hPa 0,0 mm 3,2 km/h (1 Bft) S-SW 202 10 min 1 UV-I 374 W/m 8,0 km/h (2 Bft)
19.02.2015 14:40 6,8 C 68 % 1025,2 hPa 0,0 mm 1,6 km/h (1 Bft) S-SW 202 10 min 1 UV-I 366 W/m 8,0 km/h (2 Bft)
19.02.2015 14:50 7,2 C 67 % 1025,2 hPa 0,0 mm 1,6 km/h (1 Bft) S-SW 202 10 min 1 UV-I 352 W/m 8,0 km/h (2 Bft)
19.02.2015 15:00 7,4 C 65 % 1024,9 hPa 0,0 mm 0,0 km/h (0 Bft) S-SW 202 10 min 1 UV-I 341 W/m 6,4 km/h (2 Bft)
19.02.2015 15:10 7,6 C 65 % 1024,7 hPa 0,0 mm 1,6 km/h (1 Bft) S-SW 202 10 min 1 UV-I 327 W/m 8,0 km/h (2 Bft)
19.02.2015 15:20 7,2 C 67 % 1024,5 hPa 0,0 mm 1,6 km/h (1 Bft) S-SW 202 10 min 1 UV-I 304 W/m 8,0 km/h (2 Bft)
19.02.2015 15:30 7,3 C 67 % 1024,3 hPa 0,0 mm 0,0 km/h (0 Bft) S-SW 202 10 min 1 UV-I 287 W/m 4,8 km/h (1 Bft)
19.02.2015 15:40 7,6 C 66 % 1024,2 hPa 0,0 mm 0,0 km/h (0 Bft) S-SW 202 10 min 1 UV-I 265 W/m 3,2 km/h (1 Bft)
19.02.2015 15:50 7,5 C 67 % 1024,3 hPa 0,0 mm 0,0 km/h (0 Bft) S-SW 202 10 min 1 UV-I 246 W/m 6,4 km/h (2 Bft)
19.02.2015 16:00 7,6 C 67 % 1023,8 hPa 0,0 mm 1,6 km/h (1 Bft) S-SW 202 10 min 1 UV-I 221 W/m 8,0 km/h (2 Bft)
19.02.2015 16:10 7,2 C 67 % 1023,7 hPa 0,0 mm 1,6 km/h (1 Bft) S-SW 202 10 min 1 UV-I 199 W/m 8,0 km/h (2 Bft)
19.02.2015 16:20 6,9 C 67 % 1023,7 hPa 0,0 mm 1,6 km/h (1 Bft) S-SW 202 10 min 1 UV-I 178 W/m 16,1 km/h (3 Bft)
19.02.2015 16:30 6,6 C 68 % 1023,5 hPa 0,0 mm 4,8 km/h (1 Bft) S 180 10 min 0 UV-I 160 W/m 12,9 km/h (3 Bft)
19.02.2015 16:40 6,1 C 69 % 1023,6 hPa 0,0 mm 3,2 km/h (1 Bft) SO 135 10 min 0 UV-I 109 W/m 9,7 km/h (2 Bft)
19.02.2015 16:50 5,8 C 69 % 1023,5 hPa 0,0 mm 1,6 km/h (1 Bft) SO 135 10 min 0 UV-I 90 W/m 8,0 km/h (2 Bft)
19.02.2015 17:00 5,4 C 70 % 1023,4 hPa 0,0 mm 3,2 km/h (1 Bft) S-SO 157 10 min 0 UV-I 58 W/m 19,3 km/h (3 Bft)
19.02.2015 17:10 5,1 C 71 % 1023,5 hPa 0,0 mm 3,2 km/h (1 Bft) S-SO 157 0 min 0 UV-I 42 W/m 11,3 km/h (2 Bft)
19.02.2015 17:20 4,7 C 72 % 1023,4 hPa 0,0 mm 1,6 km/h (1 Bft) S-SO 157 0 min 0 UV-I 23 W/m 9,7 km/h (2 Bft)
19.02.2015 17:30 4,2 C 74 % 1023,2 hPa 0,0 mm 1,6 km/h (1 Bft) SO 135 10 min 0 UV-I 18 W/m 11,3 km/h (2 Bft)
19.02.2015 17:40 3,8 C 74 % 1023,1 hPa 0,0 mm 1,6 km/h (1 Bft) S-SO 157 0 min 0 UV-I 11 W/m 11,3 km/h (2 Bft)
19.02.2015 17:50 3,5 C 75 % 1023,3 hPa 0,0 mm 1,6 km/h (1 Bft) S-SO 157 0 min 0 UV-I 5 W/m 6,4 km/h (2 Bft)
19.02.2015 18:00 3,3 C 76 % 1023,3 hPa 0,0 mm 1,6 km/h (1 Bft) S-SO 157 0 min 0 UV-I 0 W/m 14,5 km/h (3 Bft)
19.02.2015 18:10 3,1 C 76 % 1023,3 hPa 0,0 mm 1,6 km/h (1 Bft) S-SO 157 0 min 0 UV-I 0 W/m 11,3 km/h (2 Bft)
19.02.2015 18:20 2,8 C 77 % 1023,3 hPa 0,0 mm 1,6 km/h (1 Bft) S-SO 157 0 min 0 UV-I 0 W/m 8,0 km/h (2 Bft)
19.02.2015 18:30 2,6 C 77 % 1023,2 hPa 0,0 mm 1,6 km/h (1 Bft) S-SO 157 0 min 0 UV-I 0 W/m 8,0 km/h (2 Bft)
19.02.2015 18:40 2,4 C 78 % 1023,3 hPa 0,0 mm 0,0 km/h (0 Bft) S-SO 157 0 min 0 UV-I 0 W/m 8,0 km/h (2 Bft)
19.02.2015 18:50 2,2 C 78 % 1023,2 hPa 0,0 mm 1,6 km/h (1 Bft) S-SO 157 0 min 0 UV-I 0 W/m 9,7 km/h (2 Bft)
19.02.2015 19:00 2,1 C 78 % 1023,1 hPa 0,0 mm 1,6 km/h (1 Bft) S-SO 157 0 min 0 UV-I 0 W/m 14,5 km/h (3 Bft)
19.02.2015 19:10 1,9 C 78 % 1023,1 hPa 0,0 mm 1,6 km/h (1 Bft) S-SO 157 0 min 0 UV-I 0 W/m 9,7 km/h (2 Bft)
19.02.2015 19:20 1,8 C 79 % 1023,0 hPa 0,0 mm 0,0 km/h (0 Bft) S-SO 157 0 min 0 UV-I 0 W/m 6,4 km/h (2 Bft)
19.02.2015 19:30 1,6 C 79 % 1023,0 hPa 0,0 mm 0,0 km/h (0 Bft) S-SO 157 0 min 0 UV-I 0 W/m 6,4 km/h (2 Bft)
19.02.2015 19:40 1,3 C 80 % 1023,0 hPa 0,0 mm 0,0 km/h (0 Bft) S-SO 157 0 min 0 UV-I 0 W/m 6,4 km/h (2 Bft)
19.02.2015 19:50 1,3 C 80 % 1022,9 hPa 0,0 mm 1,6 km/h (1 Bft) S-SO 157 0 min 0 UV-I 0 W/m 11,3 km/h (2 Bft)
19.02.2015 20:00 1,3 C 80 % 1023,0 hPa 0,0 mm 1,6 km/h (1 Bft) S-SO 157 0 min 0 UV-I 0 W/m 8,0 km/h (2 Bft)
19.02.2015 20:10 1,1 C 80 % 1022,9 hPa 0,0 mm 0,0 km/h (0 Bft) S-SO 157 0 min 0 UV-I 0 W/m 8,0 km/h (2 Bft)
19.02.2015 20:20 0,8 C 81 % 1022,9 hPa 0,0 mm 0,0 km/h (0 Bft) S-SO 157 0 min 0 UV-I 0 W/m 4,8 km/h (1 Bft)
19.02.2015 20:30 0,6 C 81 % 1022,9 hPa 0,0 mm 0,0 km/h (0 Bft) S-SO 157 0 min 0 UV-I 0 W/m 1,6 km/h (1 Bft)
19.02.2015 20:40 0,4 C 81 % 1022,9 hPa 0,0 mm 0,0 km/h (0 Bft) S-SO 157 0 min 0 UV-I 0 W/m 3,2 km/h (1 Bft)
19.02.2015 20:50 0,2 C 82 % 1022,8 hPa 0,0 mm 0,0 km/h (0 Bft) S-SO 157 0 min 0 UV-I 0 W/m 4,8 km/h (1 Bft)
19.02.2015 21:00 0,3 C 82 % 1022,8 hPa 0,0 mm 0,0 km/h (0 Bft) S-SO 157 0 min 0 UV-I 0 W/m 9,7 km/h (2 Bft)
19.02.2015 21:10 0,3 C 82 % 1022,6 hPa 0,0 mm 1,6 km/h (1 Bft) S-SO 157 0 min 0 UV-I 0 W/m 6,4 km/h (2 Bft)
19.02.2015 21:20 0,3 C 82 % 1022,5 hPa 0,0 mm 1,6 km/h (1 Bft) S-SO 157 0 min 0 UV-I 0 W/m 9,7 km/h (2 Bft)
19.02.2015 21:30 0,3 C 82 % 1022,2 hPa 0,0 mm 0,0 km/h (0 Bft) S-SO 157 0 min 0 UV-I 0 W/m 6,4 km/h (2 Bft)
19.02.2015 21:40 0,2 C 83 % 1022,1 hPa 0,0 mm 0,0 km/h (0 Bft) S-SO 157 0 min 0 UV-I 0 W/m 6,4 km/h (2 Bft)
19.02.2015 21:50 0,2 C 82 % 1021,9 hPa 0,0 mm 0,0 km/h (0 Bft) S-SO 157 0 min 0 UV-I 0 W/m 3,2 km/h (1 Bft)
19.02.2015 22:00 0,1 C 82 % 1021,9 hPa 0,0 mm 0,0 km/h (0 Bft) S-SO 157 0 min 0 UV-I 0 W/m 1,6 km/h (1 Bft)
19.02.2015 22:10 -0,1 C 82 % 1021,7 hPa 0,0 mm 0,0 km/h (0 Bft) N 0 0 min 0 UV-I 0 W/m 0,0 km/h (0 Bft)
19.02.2015 22:20 -0,1 C 83 % 1021,6 hPa 0,0 mm 0,0 km/h (0 Bft) S-SO 157 0 min 0 UV-I 0 W/m 3,2 km/h (1 Bft)
19.02.2015 22:30 0,0 C 82 % 1021,6 hPa 0,0 mm 0,0 km/h (0 Bft) S-SO 157 0 min 0 UV-I 0 W/m 4,8 km/h (1 Bft)
19.02.2015 22:40 0,1 C 82 % 1021,5 hPa 0,0 mm 0,0 km/h (0 Bft) S-SO 157 0 min 0 UV-I 0 W/m 1,6 km/h (1 Bft)
19.02.2015 22:50 0,1 C 82 % 1021,5 hPa 0,0 mm 0,0 km/h (0 Bft) S-SO 157 0 min 0 UV-I 0 W/m 3,2 km/h (1 Bft)
19.02.2015 23:00 -0,1 C 83 % 1021,5 hPa 0,0 mm 0,0 km/h (0 Bft) S-SO 157 0 min 0 UV-I 0 W/m 1,6 km/h (1 Bft)
19.02.2015 23:10 -0,3 C 83 % 1021,2 hPa 0,0 mm 0,0 km/h (0 Bft) S-SO 157 0 min 0 UV-I 0 W/m 4,8 km/h (1 Bft)
19.02.2015 23:20 -0,4 C 83 % 1021,2 hPa 0,0 mm 0,0 km/h (0 Bft) S-SO 157 0 min 0 UV-I 0 W/m 4,8 km/h (1 Bft)
19.02.2015 23:30 -0,6 C 84 % 1021,2 hPa 0,0 mm 0,0 km/h (0 Bft) S-SO 157 0 min 0 UV-I 0 W/m 1,6 km/h (1 Bft)
19.02.2015 23:40 -0,4 C 84 % 1021,2 hPa 0,0 mm 0,0 km/h (0 Bft) S-SO 157 0 min 0 UV-I 0 W/m 4,8 km/h (1 Bft)
19.02.2015 23:50 -0,5 C 84 % 1021,0 hPa 0,0 mm 0,0 km/h (0 Bft) S-SO 157 0 min 0 UV-I 0 W/m 4,8 km/h (1 Bft)
_ Min-Zeit 06:30 15:00 23:50 - 00:00 - - - - - 00:00
Minimum _ -2,6 C 65 % 1021,0 hPa - 0,0 km/h (0 Bft) - - - - - 0,0 km/h (0 Bft)
_ Max-Zeit 15:40 07:20 00:00 00:00 16:30 - - 10:00 12:10 13:40 17:00
Maximum _ 7,8 C 92 % 1034,2 hPa 0,0 mm 4,8 km/h
S (1 Bft)
- - 10 min 2 UV-I 427 W/m 19,3 km/h
S-SO (3 Bft)
Durchschnitt _ 1,6 C 82 % 1027,7 hPa #0,0 mm 0,7 km/h (0 Bft) S-SO - #7:10 h 1 UV-I 235 W/m 5,2 km/h (1 Bft)